createdAt,value
2022-07-27T00:01:51.607Z,21.30
2022-07-27T00:04:20.638Z,21.30
2022-07-27T00:06:48.214Z,21.30
2022-07-27T00:09:15.712Z,21.30
2022-07-27T00:11:43.027Z,21.30
2022-07-27T00:14:10.122Z,21.30
2022-07-27T00:16:37.326Z,21.30
2022-07-27T00:19:04.429Z,21.30
2022-07-27T00:21:37.632Z,21.30
2022-07-27T00:24:12.320Z,21.40
2022-07-27T00:26:39.275Z,21.40
2022-07-27T00:29:06.552Z,21.40
2022-07-27T00:31:33.530Z,21.40
2022-07-27T00:34:00.674Z,21.40
2022-07-27T00:36:27.737Z,21.40
2022-07-27T00:38:54.655Z,21.30
2022-07-27T00:41:21.582Z,21.30
2022-07-27T00:43:57.197Z,21.20
2022-07-27T00:46:25.920Z,21.30
2022-07-27T00:48:53.629Z,21.20
2022-07-27T00:51:21.676Z,21.20
2022-07-27T00:53:49.486Z,21.20
2022-07-27T00:56:16.798Z,21.10
2022-07-27T00:58:47.407Z,21.20
2022-07-27T01:01:14.659Z,21.20
2022-07-27T01:03:41.560Z,21.20
2022-07-27T01:06:09.561Z,21.10
2022-07-27T01:08:36.828Z,21.10
2022-07-27T01:11:04.665Z,21.10
2022-07-27T01:13:31.730Z,21.20
2022-07-27T01:15:59.817Z,21.20
2022-07-27T01:18:33.196Z,21.10
2022-07-27T01:21:01.809Z,21.10
2022-07-27T01:23:29.048Z,21.10
2022-07-27T01:29:25.935Z,21.20
2022-07-27T01:31:52.829Z,21.20
2022-07-27T01:34:19.739Z,21.10
2022-07-27T01:36:46.808Z,21.10
2022-07-27T01:39:15.412Z,21.00
2022-07-27T01:41:42.689Z,21.00
2022-07-27T01:44:09.633Z,21.00
2022-07-27T01:46:36.800Z,21.10
2022-07-27T01:49:04.680Z,21.00
2022-07-27T01:51:31.832Z,21.00
2022-07-27T01:53:58.814Z,20.90
2022-07-27T01:56:25.730Z,20.90
2022-07-27T01:58:52.595Z,20.90
2022-07-27T02:01:19.501Z,20.90
2022-07-27T02:03:46.372Z,20.90
2022-07-27T02:06:13.351Z,20.90
2022-07-27T02:08:40.591Z,21.00
2022-07-27T02:11:26.344Z,20.90
2022-07-27T02:13:53.260Z,21.00
2022-07-27T02:16:20.591Z,20.90
2022-07-27T02:18:48.777Z,20.90
2022-07-27T02:21:16.461Z,20.90
2022-07-27T02:23:45.143Z,20.80
2022-07-27T02:26:11.982Z,20.70
2022-07-27T02:28:39.414Z,20.80
2022-07-27T02:31:06.312Z,20.80
2022-07-27T02:33:33.513Z,20.70
2022-07-27T02:36:00.381Z,20.80
2022-07-27T02:38:27.348Z,20.70
2022-07-27T02:40:54.310Z,20.60
2022-07-27T02:43:21.133Z,20.60
2022-07-27T02:45:50.030Z,20.60
2022-07-27T02:48:17.026Z,20.60
2022-07-27T02:50:43.887Z,20.60
2022-07-27T02:53:10.824Z,20.70
2022-07-27T02:55:37.730Z,20.70
2022-07-27T02:58:04.579Z,20.80
2022-07-27T03:00:31.671Z,20.80
2022-07-27T03:02:58.558Z,20.80
2022-07-27T03:05:25.434Z,20.70
2022-07-27T03:07:52.506Z,20.70
2022-07-27T03:10:19.493Z,20.70
2022-07-27T03:12:46.370Z,20.70
2022-07-27T03:15:13.268Z,20.60
2022-07-27T03:17:40.115Z,20.60
2022-07-27T03:20:08.079Z,20.60
2022-07-27T03:22:37.503Z,20.50
2022-07-27T03:25:04.794Z,20.60
2022-07-27T03:27:31.762Z,20.60
2022-07-27T03:29:58.663Z,20.70
2022-07-27T03:32:25.623Z,20.80
2022-07-27T03:34:52.632Z,20.80
2022-07-27T03:37:20.189Z,20.90
2022-07-27T03:39:47.299Z,20.90
2022-07-27T03:42:14.541Z,20.90
2022-07-27T03:44:41.474Z,20.90
2022-07-27T03:47:08.371Z,21.00
2022-07-27T03:49:35.443Z,20.90
2022-07-27T03:52:02.358Z,20.90
2022-07-27T03:54:29.208Z,20.80
2022-07-27T03:56:56.107Z,20.90
2022-07-27T03:59:23.162Z,20.90
2022-07-27T04:01:50.095Z,20.80
2022-07-27T04:04:17.028Z,20.80
2022-07-27T04:06:43.876Z,20.70
2022-07-27T04:09:11.075Z,20.80
2022-07-27T04:11:50.418Z,20.80
2022-07-27T04:14:18.394Z,20.80
2022-07-27T04:16:45.746Z,20.80
2022-07-27T04:19:13.561Z,20.80
2022-07-27T04:21:40.707Z,20.70
2022-07-27T04:24:07.792Z,20.80
2022-07-27T04:26:34.731Z,20.90
2022-07-27T04:29:01.569Z,20.90
2022-07-27T04:31:28.488Z,20.90
2022-07-27T04:33:55.347Z,20.80
2022-07-27T04:36:22.219Z,20.80
2022-07-27T04:38:49.107Z,20.80
2022-07-27T04:41:15.927Z,20.80
2022-07-27T04:43:42.821Z,20.90
2022-07-27T04:46:14.981Z,20.90
2022-07-27T04:48:49.328Z,20.80
2022-07-27T04:51:17.779Z,20.70
2022-07-27T04:53:53.881Z,20.60
2022-07-27T04:56:25.416Z,20.50
2022-07-27T04:58:52.225Z,20.50
2022-07-27T05:01:19.126Z,20.60
2022-07-27T05:03:46.192Z,20.50
2022-07-27T05:06:13.059Z,20.60
2022-07-27T05:08:39.923Z,20.50
2022-07-27T05:11:06.785Z,20.50
2022-07-27T05:13:33.722Z,20.50
2022-07-27T05:16:00.621Z,20.60
2022-07-27T05:18:27.481Z,20.60
2022-07-27T05:20:54.309Z,20.50
2022-07-27T05:23:21.212Z,20.50
2022-07-27T05:25:48.089Z,20.60
2022-07-27T05:28:15.137Z,20.60
2022-07-27T05:30:42.135Z,20.60
2022-07-27T05:33:09.063Z,20.70
2022-07-27T05:35:35.866Z,20.70
2022-07-27T05:38:03.044Z,20.70
2022-07-27T05:40:30.973Z,20.70
2022-07-27T05:42:57.922Z,20.80
2022-07-27T05:45:26.433Z,20.80
2022-07-27T05:47:54.534Z,20.80
2022-07-27T05:50:21.717Z,20.90
2022-07-27T05:52:48.868Z,20.80
2022-07-27T05:55:15.855Z,20.80
2022-07-27T05:57:43.103Z,20.90
2022-07-27T06:00:11.032Z,20.90
2022-07-27T06:02:37.934Z,20.90
2022-07-27T06:05:05.692Z,20.90
2022-07-27T06:07:51.224Z,20.90
2022-07-27T06:10:18.501Z,20.90
2022-07-27T06:12:46.483Z,20.90
2022-07-27T06:15:14.193Z,20.90
2022-07-27T06:17:41.202Z,21.10
2022-07-27T06:20:09.286Z,21.20
2022-07-27T06:22:50.606Z,21.20
2022-07-27T06:25:18.293Z,21.20
2022-07-27T06:27:45.629Z,21.20
2022-07-27T06:30:17.394Z,21.20
2022-07-27T06:32:44.642Z,21.20
2022-07-27T06:35:12.754Z,21.20
2022-07-27T06:37:44.145Z,21.20
2022-07-27T06:40:14.931Z,21.20
2022-07-27T06:42:42.107Z,21.10
2022-07-27T06:45:10.868Z,21.10
2022-07-27T06:47:49.122Z,21.10
2022-07-27T06:50:18.315Z,21.20
2022-07-27T06:52:45.345Z,21.10
2022-07-27T06:55:12.881Z,21.20
2022-07-27T06:57:40.183Z,21.30
2022-07-27T07:00:07.746Z,21.40
2022-07-27T07:02:34.617Z,21.50
2022-07-27T07:05:01.593Z,21.50
2022-07-27T07:07:28.404Z,21.50
2022-07-27T07:09:55.335Z,21.60
2022-07-27T07:12:22.152Z,21.60
2022-07-27T07:14:48.991Z,21.70
2022-07-27T07:17:15.936Z,21.70
2022-07-27T07:19:43.561Z,21.70
2022-07-27T07:22:10.398Z,21.80
2022-07-27T07:24:37.379Z,21.80
2022-07-27T07:27:04.326Z,21.70
2022-07-27T07:29:31.152Z,21.80
2022-07-27T07:31:58.074Z,21.90
2022-07-27T07:34:25.025Z,21.90
2022-07-27T07:36:51.911Z,22.00
2022-07-27T07:39:18.780Z,22.00
2022-07-27T07:41:45.615Z,22.00
2022-07-27T07:44:12.482Z,22.10
2022-07-27T07:46:42.759Z,22.10
2022-07-27T07:49:14.164Z,22.10
2022-07-27T07:51:41.677Z,22.10
2022-07-27T07:54:08.949Z,22.10
2022-07-27T07:56:35.785Z,22.00
2022-07-27T07:59:05.028Z,22.10
2022-07-27T08:01:32.079Z,22.20
2022-07-27T08:03:58.978Z,22.20
2022-07-27T08:06:25.889Z,22.20
2022-07-27T08:08:52.810Z,22.30
2022-07-27T08:11:20.877Z,22.30
2022-07-27T08:13:47.817Z,22.40
2022-07-27T08:16:15.108Z,22.30
2022-07-27T08:18:42.560Z,22.30
2022-07-27T08:21:09.545Z,22.30
2022-07-27T08:23:36.511Z,22.30
2022-07-27T08:26:07.765Z,22.40
2022-07-27T08:28:37.185Z,22.40
2022-07-27T08:31:09.057Z,22.40
2022-07-27T08:33:41.744Z,22.40
2022-07-27T08:36:08.750Z,22.40
2022-07-27T08:38:35.640Z,22.40
2022-07-27T08:41:03.848Z,22.40
2022-07-27T08:43:32.046Z,22.40
2022-07-27T08:46:00.980Z,22.40
2022-07-27T08:48:31.094Z,22.40
2022-07-27T08:50:58.151Z,22.50
2022-07-27T08:53:25.665Z,22.60
2022-07-27T08:55:52.785Z,22.60
2022-07-27T08:58:19.707Z,22.60
2022-07-27T09:00:50.365Z,22.70
2022-07-27T09:03:21.108Z,22.70
2022-07-27T09:05:53.604Z,22.70
2022-07-27T09:08:26.241Z,22.90
2022-07-27T09:10:58.062Z,22.80
2022-07-27T09:13:33.561Z,22.90
2022-07-27T09:16:24.225Z,22.80
2022-07-27T09:19:00.065Z,22.90
2022-07-27T09:21:27.181Z,23.00
2022-07-27T09:24:36.601Z,23.00
2022-07-27T09:27:05.863Z,23.00
2022-07-27T09:29:36.629Z,23.00
2022-07-27T09:32:17.477Z,23.00
2022-07-27T09:34:45.381Z,23.00
2022-07-27T09:37:22.702Z,23.10
2022-07-27T09:39:49.604Z,23.10
2022-07-27T09:42:52.464Z,23.30
2022-07-27T09:45:04.472Z,23.40
2022-07-27T09:47:32.465Z,23.50
2022-07-27T09:50:20.782Z,23.30
2022-07-27T09:52:48.964Z,23.30
2022-07-27T09:55:20.917Z,23.50
2022-07-27T09:57:52.850Z,23.50
2022-07-27T10:00:20.350Z,23.70
2022-07-27T10:02:50.327Z,23.90
2022-07-27T10:05:21.305Z,23.70
2022-07-27T10:07:49.381Z,23.80
2022-07-27T10:10:17.128Z,23.90
2022-07-27T10:12:46.815Z,23.90
2022-07-27T10:15:16.679Z,23.90
2022-07-27T10:17:45.076Z,23.90
2022-07-27T10:20:14.076Z,23.90
2022-07-27T10:23:00.779Z,23.90
2022-07-27T10:25:37.493Z,24.00
2022-07-27T10:28:16.544Z,24.00
2022-07-27T10:30:46.239Z,24.00
2022-07-27T10:33:35.274Z,23.90
2022-07-27T10:36:04.208Z,24.00
2022-07-27T10:38:58.010Z,23.90
2022-07-27T10:41:30.312Z,24.00
2022-07-27T10:44:28.309Z,24.00
2022-07-27T10:46:59.454Z,24.20
2022-07-27T10:49:32.399Z,24.30
2022-07-27T10:52:00.526Z,24.30
2022-07-27T10:54:35.482Z,24.40
2022-07-27T10:57:04.140Z,24.30
2022-07-27T11:02:39.457Z,24.30
2022-07-27T11:05:07.477Z,24.40
2022-07-27T11:07:44.622Z,24.30
2022-07-27T11:10:13.338Z,24.30
2022-07-27T11:12:41.558Z,24.40
2022-07-27T11:15:09.035Z,24.50
2022-07-27T11:20:24.378Z,24.60
2022-07-27T11:25:38.576Z,24.60
2022-07-27T11:28:09.162Z,24.70
2022-07-27T11:30:36.163Z,24.60
2022-07-27T11:33:05.072Z,24.60
2022-07-27T11:35:31.980Z,24.60
2022-07-27T11:38:01.091Z,24.60
2022-07-27T11:40:59.894Z,24.40
2022-07-27T11:43:37.065Z,24.40
2022-07-27T11:46:18.749Z,24.60
2022-07-27T11:49:13.355Z,24.60
2022-07-27T11:51:48.468Z,24.70
2022-07-27T11:54:23.903Z,24.80
2022-07-27T11:56:55.768Z,24.90
2022-07-27T11:59:27.279Z,24.80
2022-07-27T12:02:01.331Z,24.90
2022-07-27T12:04:36.098Z,24.90
2022-07-27T12:07:30.423Z,24.90
2022-07-27T12:10:03.445Z,25.00
2022-07-27T12:12:35.049Z,25.00
2022-07-27T12:15:21.974Z,25.00
2022-07-27T12:17:57.402Z,25.00
2022-07-27T12:20:32.609Z,25.20
2022-07-27T12:23:05.575Z,25.20
2022-07-27T12:25:33.518Z,25.30
2022-07-27T12:28:09.863Z,25.40
2022-07-27T12:30:38.782Z,25.50
2022-07-27T12:33:08.251Z,25.50
2022-07-27T12:35:46.907Z,25.40
2022-07-27T12:38:14.306Z,25.40
2022-07-27T12:40:58.252Z,25.30
2022-07-27T12:43:27.419Z,25.20
2022-07-27T12:45:55.304Z,25.10
2022-07-27T12:48:26.830Z,25.10
2022-07-27T12:51:07.634Z,25.10
2022-07-27T12:53:36.969Z,24.90
2022-07-27T12:56:07.046Z,25.00
2022-07-27T12:58:34.535Z,25.10
2022-07-27T13:01:01.493Z,25.30
2022-07-27T13:03:28.514Z,25.40
2022-07-27T13:05:55.385Z,25.60
2022-07-27T13:08:22.471Z,25.70
2022-07-27T13:10:52.367Z,25.70
2022-07-27T13:13:24.478Z,25.70
2022-07-27T13:15:51.776Z,25.90
2022-07-27T13:18:23.183Z,26.00
2022-07-27T13:20:51.566Z,25.90
2022-07-27T13:23:18.717Z,25.70
2022-07-27T13:25:45.663Z,25.60
2022-07-27T13:28:12.955Z,25.60
2022-07-27T13:30:40.010Z,25.50
2022-07-27T13:33:06.947Z,25.50
2022-07-27T13:35:33.874Z,25.40
2022-07-27T13:38:00.746Z,25.30
2022-07-27T13:40:27.637Z,25.40
2022-07-27T13:46:21.798Z,25.70
2022-07-27T13:48:48.787Z,25.80
2022-07-27T13:51:15.838Z,26.00
2022-07-27T13:53:42.711Z,26.10
2022-07-27T13:56:09.593Z,26.20
2022-07-27T13:58:38.113Z,26.20
2022-07-27T14:01:07.698Z,26.20
2022-07-27T14:03:34.746Z,26.20
2022-07-27T14:06:01.657Z,26.10
2022-07-27T14:08:28.476Z,26.10
2022-07-27T14:10:55.319Z,26.20
2022-07-27T14:13:22.540Z,26.30
2022-07-27T14:15:54.451Z,26.40
2022-07-27T14:18:27.292Z,26.40
2022-07-27T14:20:56.048Z,26.40
2022-07-27T14:23:24.126Z,26.40
2022-07-27T14:25:51.431Z,26.40
2022-07-27T14:28:18.359Z,26.40
2022-07-27T14:30:46.488Z,26.50
2022-07-27T14:33:13.513Z,26.40
2022-07-27T14:35:41.140Z,26.40
2022-07-27T14:38:09.497Z,26.10
2022-07-27T14:40:36.873Z,25.90
2022-07-27T14:43:04.389Z,25.80
2022-07-27T14:45:43.926Z,25.80
2022-07-27T14:48:14.884Z,25.90
2022-07-27T14:50:44.861Z,25.90
2022-07-27T14:53:12.015Z,25.90
2022-07-27T14:55:42.504Z,25.90
2022-07-27T14:58:11.015Z,25.90
2022-07-27T15:00:39.250Z,25.90
2022-07-27T15:03:07.234Z,26.00
2022-07-27T15:05:50.067Z,26.00
2022-07-27T15:08:18.818Z,26.00
2022-07-27T15:10:46.779Z,25.90
2022-07-27T15:13:14.915Z,25.80
2022-07-27T15:15:41.954Z,26.00
2022-07-27T15:18:09.132Z,25.90
2022-07-27T15:20:36.266Z,25.90
2022-07-27T15:23:04.248Z,25.90
2022-07-27T15:25:31.158Z,26.00
2022-07-27T15:27:58.411Z,26.00
2022-07-27T15:30:25.513Z,26.10
2022-07-27T15:32:52.676Z,26.10
2022-07-27T15:35:19.782Z,26.20
2022-07-27T15:37:54.841Z,26.20
2022-07-27T15:40:38.808Z,26.00
2022-07-27T15:43:08.655Z,26.00
2022-07-27T15:45:38.722Z,26.00
2022-07-27T15:48:08.472Z,26.00
2022-07-27T15:50:40.314Z,26.00
2022-07-27T15:53:08.030Z,26.00
2022-07-27T15:55:37.768Z,26.00
2022-07-27T15:58:06.589Z,26.00
2022-07-27T16:00:39.436Z,26.00
2022-07-27T16:03:07.842Z,26.00
2022-07-27T16:05:34.731Z,26.00
2022-07-27T16:08:01.838Z,26.00
2022-07-27T16:10:30.055Z,26.00
2022-07-27T16:12:57.497Z,26.00
2022-07-27T16:15:44.442Z,26.10
2022-07-27T16:18:12.148Z,26.10
2022-07-27T16:20:39.156Z,26.20
2022-07-27T16:23:17.875Z,26.10
2022-07-27T16:26:07.527Z,26.20
2022-07-27T16:28:39.331Z,26.20
2022-07-27T16:31:09.408Z,26.10
2022-07-27T16:36:17.446Z,26.10
2022-07-27T16:38:50.401Z,26.00
2022-07-27T16:41:19.204Z,26.00
2022-07-27T16:43:46.532Z,26.00
2022-07-27T16:46:13.968Z,26.10
2022-07-27T16:48:42.525Z,26.10
2022-07-27T16:51:14.550Z,26.10
2022-07-27T16:53:43.546Z,26.10
2022-07-27T16:56:11.177Z,26.10
2022-07-27T16:58:38.590Z,26.00
2022-07-27T17:01:06.302Z,26.00
2022-07-27T17:03:33.310Z,26.00
2022-07-27T17:06:05.597Z,25.90
2022-07-27T17:08:33.254Z,25.90
2022-07-27T17:11:02.328Z,25.80
2022-07-27T17:13:33.890Z,25.80
2022-07-27T17:16:02.726Z,25.80
2022-07-27T17:18:29.823Z,25.80
2022-07-27T17:20:56.940Z,25.80
2022-07-27T17:23:25.010Z,25.80
2022-07-27T17:25:53.285Z,25.80
2022-07-27T17:28:21.038Z,25.80
2022-07-27T17:30:48.181Z,25.80
2022-07-27T17:33:15.277Z,25.70
2022-07-27T17:35:42.242Z,25.70
2022-07-27T17:38:13.974Z,25.70
2022-07-27T17:40:40.966Z,25.60
2022-07-27T17:43:08.074Z,25.60
2022-07-27T17:45:35.124Z,25.50
2022-07-27T17:48:02.377Z,25.50
2022-07-27T17:50:29.338Z,25.50
2022-07-27T17:53:00.274Z,25.40
2022-07-27T17:55:27.585Z,25.40
2022-07-27T17:57:55.965Z,25.30
2022-07-27T18:00:23.148Z,25.30
2022-07-27T18:02:55.183Z,25.30
2022-07-27T18:05:22.153Z,25.30
2022-07-27T18:07:52.421Z,25.20
2022-07-27T18:10:20.516Z,25.20
2022-07-27T18:12:47.896Z,25.10
2022-07-27T18:15:34.013Z,25.10
2022-07-27T18:18:03.622Z,25.10
2022-07-27T18:20:31.060Z,25.00
2022-07-27T18:22:58.368Z,24.90
2022-07-27T18:25:26.012Z,25.00
2022-07-27T18:27:52.957Z,25.00
2022-07-27T18:30:19.897Z,24.90
2022-07-27T18:32:47.054Z,24.90
2022-07-27T18:35:17.055Z,24.90
2022-07-27T18:37:48.215Z,24.80
2022-07-27T18:40:16.296Z,24.70
2022-07-27T18:42:43.543Z,24.70
2022-07-27T18:45:10.832Z,24.60
2022-07-27T18:47:39.219Z,24.60
2022-07-27T18:50:07.220Z,24.50
2022-07-27T18:52:34.379Z,24.40
2022-07-27T18:55:01.493Z,24.40
2022-07-27T18:57:29.116Z,24.30
2022-07-27T18:59:56.052Z,24.30
2022-07-27T19:02:25.814Z,24.20
2022-07-27T19:04:54.397Z,24.20
2022-07-27T19:07:22.316Z,24.10
2022-07-27T19:09:51.058Z,24.10
2022-07-27T19:12:17.937Z,24.00
2022-07-27T19:14:44.889Z,23.90
2022-07-27T19:17:17.802Z,23.90
2022-07-27T19:19:45.373Z,23.80
2022-07-27T19:22:12.941Z,23.70
2022-07-27T19:24:40.217Z,23.70
2022-07-27T19:27:12.383Z,23.60
2022-07-27T19:29:39.490Z,23.60
2022-07-27T19:32:08.403Z,23.60
2022-07-27T19:34:35.914Z,23.50
2022-07-27T19:37:03.241Z,23.50
2022-07-27T19:39:57.854Z,23.40
2022-07-27T19:42:21.031Z,23.30
2022-07-27T19:44:48.160Z,23.30
2022-07-27T19:47:15.198Z,23.20
2022-07-27T19:49:43.010Z,23.20
2022-07-27T19:52:09.996Z,23.20
2022-07-27T19:54:36.923Z,23.20
2022-07-27T19:57:04.405Z,23.20
2022-07-27T19:59:56.024Z,23.10
2022-07-27T20:02:19.687Z,23.10
2022-07-27T20:04:46.804Z,23.00
2022-07-27T20:07:13.974Z,23.00
2022-07-27T20:09:41.436Z,23.00
2022-07-27T20:12:08.852Z,22.90
2022-07-27T20:14:36.417Z,22.90
2022-07-27T20:17:04.033Z,22.90
2022-07-27T20:19:31.039Z,22.90
2022-07-27T20:21:59.853Z,22.90
2022-07-27T20:24:27.967Z,22.90
2022-07-27T20:26:56.601Z,22.90
2022-07-27T20:29:23.837Z,22.90
2022-07-27T20:31:52.196Z,22.90
2022-07-27T20:34:23.322Z,22.90
2022-07-27T20:36:50.842Z,22.90
2022-07-27T20:39:17.992Z,22.90
2022-07-27T20:41:46.011Z,22.90
2022-07-27T20:44:12.910Z,22.90
2022-07-27T20:46:40.073Z,22.90
2022-07-27T20:49:07.179Z,22.90
2022-07-27T20:51:34.274Z,22.90
2022-07-27T20:54:01.113Z,22.90
2022-07-27T20:56:27.962Z,22.90
2022-07-27T20:58:54.907Z,22.80
2022-07-27T21:01:21.868Z,22.80
2022-07-27T21:03:49.057Z,22.80
2022-07-27T21:06:16.154Z,22.80
2022-07-27T21:08:46.636Z,22.80
2022-07-27T21:11:14.061Z,22.70
2022-07-27T21:13:41.388Z,22.70
2022-07-27T21:16:08.654Z,22.70
2022-07-27T21:18:35.806Z,22.60
2022-07-27T21:21:02.843Z,22.60
2022-07-27T21:23:48.210Z,22.50
2022-07-27T21:26:16.221Z,22.50
2022-07-27T21:28:45.261Z,22.40
2022-07-27T21:31:12.450Z,22.40
2022-07-27T21:33:40.116Z,22.40
2022-07-27T21:36:07.604Z,22.30
2022-07-27T21:38:34.589Z,22.30
2022-07-27T21:41:01.538Z,22.20
2022-07-27T21:43:28.421Z,22.20
2022-07-27T21:45:55.449Z,22.10
2022-07-27T21:48:22.863Z,22.10
2022-07-27T21:50:50.055Z,22.10
2022-07-27T21:53:17.030Z,22.00
2022-07-27T21:55:43.979Z,22.00
2022-07-27T21:58:12.405Z,22.00
2022-07-27T22:00:39.683Z,22.00
2022-07-27T22:03:07.222Z,22.00
2022-07-27T22:05:35.105Z,22.00
2022-07-27T22:08:02.741Z,22.00
2022-07-27T22:10:31.087Z,22.00
2022-07-27T22:12:58.561Z,21.90
2022-07-27T22:15:25.887Z,21.90
2022-07-27T22:17:52.917Z,21.90
2022-07-27T22:20:21.073Z,21.80
2022-07-27T22:22:49.703Z,21.80
2022-07-27T22:25:18.025Z,21.80
2022-07-27T22:27:45.149Z,21.80
2022-07-27T22:30:12.168Z,21.70
2022-07-27T22:32:39.020Z,21.70
2022-07-27T22:35:06.589Z,21.70
2022-07-27T22:37:33.537Z,21.60
2022-07-27T22:40:00.415Z,21.60
2022-07-27T22:42:28.253Z,21.60
2022-07-27T22:44:55.372Z,21.50
2022-07-27T22:47:22.386Z,21.50
2022-07-27T22:49:49.492Z,21.40
2022-07-27T22:52:16.414Z,21.30
2022-07-27T22:54:43.333Z,21.30
2022-07-27T22:57:10.631Z,21.40
2022-07-27T22:59:37.640Z,21.40
2022-07-27T23:02:05.442Z,21.40
2022-07-27T23:04:32.733Z,21.40
2022-07-27T23:06:59.846Z,21.30
2022-07-27T23:09:26.834Z,21.30
2022-07-27T23:11:54.158Z,21.20
2022-07-27T23:14:21.305Z,21.20
2022-07-27T23:16:48.219Z,21.20
2022-07-27T23:19:15.536Z,21.10
2022-07-27T23:21:43.231Z,21.20
2022-07-27T23:24:11.470Z,21.10
2022-07-27T23:26:41.371Z,21.10
2022-07-27T23:29:08.407Z,21.10
2022-07-27T23:31:35.834Z,21.00
2022-07-27T23:34:02.745Z,21.00
2022-07-27T23:36:29.630Z,21.00
2022-07-27T23:38:56.633Z,21.00
2022-07-27T23:41:23.561Z,20.90
2022-07-27T23:43:50.421Z,20.90
2022-07-27T23:46:17.413Z,20.80
2022-07-27T23:48:44.378Z,20.80
2022-07-27T23:51:17.432Z,20.80
2022-07-27T23:53:44.311Z,20.70
2022-07-27T23:56:11.391Z,20.70
2022-07-27T23:58:38.273Z,20.70
